createdAt,value
2018-07-30T00:00:20.569Z,100937.36
2018-07-30T00:03:27.863Z,100939.61
2018-07-30T00:06:31.642Z,100939.13
2018-07-30T00:09:35.777Z,100944.42
2018-07-30T00:12:40.652Z,100942.41
2018-07-30T00:15:44.536Z,100939.05
2018-07-30T00:18:48.637Z,100945.51
2018-07-30T00:21:52.384Z,100944.81
2018-07-30T00:24:56.372Z,100942.25
2018-07-30T00:28:00.156Z,100945.17
2018-07-30T00:31:05.020Z,100944.64
2018-07-30T00:34:11.881Z,100948.23
2018-07-30T00:37:15.723Z,100949.55
2018-07-30T00:40:19.461Z,100951.44
2018-07-30T00:43:25.657Z,100951.94
2018-07-30T00:46:30.816Z,100952.27
2018-07-30T00:49:37.896Z,100951.44
2018-07-30T00:52:51.224Z,100958.73
2018-07-30T00:55:55.072Z,100959.94
2018-07-30T00:59:09.399Z,100959.27
2018-07-30T01:02:13.437Z,100957.75
2018-07-30T01:05:17.242Z,100958.08
2018-07-30T01:08:23.539Z,100959.59
2018-07-30T01:11:30.476Z,100959.07
2018-07-30T01:14:34.290Z,100956.33
2018-07-30T01:17:37.979Z,100957.19
2018-07-30T01:20:42.305Z,100954.84
2018-07-30T01:23:46.053Z,100954.66
2018-07-30T01:26:49.818Z,100959.77
2018-07-30T01:29:53.668Z,100954.78
2018-07-30T01:32:59.620Z,100953.65
2018-07-30T01:36:04.189Z,100951.30
2018-07-30T01:39:09.505Z,100948.19
2018-07-30T01:42:14.453Z,100951.25
2018-07-30T01:45:18.525Z,100949.02
2018-07-30T01:48:23.723Z,100948.36
2018-07-30T01:51:35.967Z,100950.22
2018-07-30T01:54:40.502Z,100953.45
2018-07-30T01:57:46.763Z,100958.91
2018-07-30T02:00:50.591Z,100963.48
2018-07-30T02:03:58.557Z,100960.28
2018-07-30T02:07:02.900Z,100957.03
2018-07-30T02:10:09.165Z,100957.54
2018-07-30T02:13:14.029Z,100953.62
2018-07-30T02:16:17.814Z,100955.35
2018-07-30T02:19:21.766Z,100956.88
2018-07-30T02:22:27.882Z,100946.49
2018-07-30T02:25:31.731Z,100945.83
2018-07-30T02:28:36.247Z,100944.29
2018-07-30T02:31:41.183Z,100948.73
2018-07-30T02:34:51.773Z,100951.89
2018-07-30T02:37:55.661Z,100950.92
2018-07-30T02:40:59.689Z,100953.45
2018-07-30T02:44:03.580Z,100952.95
2018-07-30T02:47:08.453Z,100954.47
2018-07-30T02:50:13.368Z,100955.98
2018-07-30T02:53:17.793Z,100966.08
2018-07-30T02:56:23.144Z,100960.22
2018-07-30T02:59:27.545Z,100977.14
2018-07-30T03:02:34.327Z,100969.45
2018-07-30T03:05:57.101Z,100978.94
2018-07-30T03:09:02.240Z,100978.66
2018-07-30T03:12:21.812Z,100981.35
2018-07-30T03:15:26.344Z,100978.67
2018-07-30T03:18:33.597Z,100980.74
2018-07-30T03:21:37.441Z,100977.05
2018-07-30T03:24:44.882Z,100974.64
2018-07-30T03:27:48.621Z,100972.05
2018-07-30T03:30:56.790Z,100966.70
2018-07-30T03:34:02.177Z,100965.39
2018-07-30T03:37:06.828Z,100970.44
2018-07-30T03:40:11.273Z,100967.94
2018-07-30T03:43:15.037Z,100971.44
2018-07-30T03:46:28.088Z,100970.95
2018-07-30T03:49:32.697Z,100976.30
2018-07-30T03:52:39.372Z,100976.94
2018-07-30T03:56:03.148Z,100979.33
2018-07-30T03:59:14.063Z,100984.33
2018-07-30T04:02:32.373Z,100986.13
2018-07-30T04:05:37.364Z,100976.75
2018-07-30T04:08:42.344Z,100979.45
2018-07-30T04:11:46.153Z,100982.36
2018-07-30T04:14:52.422Z,100981.47
2018-07-30T04:17:57.919Z,100978.10
2018-07-30T04:21:03.159Z,100978.25
2018-07-30T04:24:07.229Z,100978.59
2018-07-30T04:27:11.552Z,100972.80
2018-07-30T04:30:16.197Z,100975.05
2018-07-30T04:33:19.793Z,100973.33
2018-07-30T04:36:23.340Z,100974.20
2018-07-30T04:39:31.475Z,100971.66
2018-07-30T04:42:34.975Z,100968.59
2018-07-30T04:45:38.606Z,100969.61
2018-07-30T04:48:47.919Z,100975.22
2018-07-30T04:51:51.857Z,100973.38
2018-07-30T04:54:58.105Z,100967.73
2018-07-30T04:58:03.038Z,100974.72
2018-07-30T05:01:10.935Z,100973.90
2018-07-30T05:04:19.282Z,100970.80
2018-07-30T05:07:24.889Z,100975.75
2018-07-30T05:10:39.500Z,100976.91
2018-07-30T05:13:48.451Z,100979.80
2018-07-30T05:16:55.353Z,100979.84
2018-07-30T05:20:00.664Z,100978.60
2018-07-30T05:23:08.317Z,100987.46
2018-07-30T05:26:12.010Z,100982.52
2018-07-30T05:29:16.420Z,100991.41
2018-07-30T05:32:21.877Z,100992.74
2018-07-30T05:35:26.456Z,101000.90
2018-07-30T05:38:30.198Z,100997.50
2018-07-30T05:41:46.280Z,100998.31
2018-07-30T05:44:51.523Z,100999.90
2018-07-30T05:47:55.187Z,101003.13
2018-07-30T05:50:58.782Z,101004.27
2018-07-30T05:54:02.780Z,101006.70
2018-07-30T05:57:07.035Z,101005.67
2018-07-30T06:00:10.640Z,101008.40
2018-07-30T06:03:15.286Z,101003.92
2018-07-30T06:06:19.660Z,101000.38
2018-07-30T06:09:24.411Z,101007.87
2018-07-30T06:12:30.362Z,101003.60
2018-07-30T06:15:34.417Z,101011.45
2018-07-30T06:18:38.358Z,101015.52
2018-07-30T06:21:41.974Z,101013.67
2018-07-30T06:24:45.647Z,101019.45
2018-07-30T06:27:50.429Z,101023.00
2018-07-30T06:30:54.062Z,101028.47
2018-07-30T06:33:57.594Z,101029.30
2018-07-30T06:37:01.612Z,101030.13
2018-07-30T06:40:06.076Z,101039.16
2018-07-30T06:43:16.710Z,101038.62
2018-07-30T06:46:21.787Z,101051.70
2018-07-30T06:49:37.136Z,101044.89
2018-07-30T06:52:47.080Z,101049.84
2018-07-30T06:55:51.418Z,101049.34
2018-07-30T06:58:57.405Z,101053.22
2018-07-30T07:02:06.170Z,101055.98
2018-07-30T07:05:12.380Z,101053.59
2018-07-30T07:08:19.175Z,101053.91
2018-07-30T07:11:26.139Z,101050.34
2018-07-30T07:14:31.381Z,101055.78
2018-07-30T07:17:36.181Z,101056.47
2018-07-30T07:20:39.848Z,101055.75
2018-07-30T07:23:43.569Z,101056.27
2018-07-30T07:26:47.709Z,101056.38
2018-07-30T07:29:52.347Z,101064.39
2018-07-30T07:32:56.464Z,101065.09
2018-07-30T07:36:00.011Z,101069.49
2018-07-30T07:39:03.783Z,101066.78
2018-07-30T07:42:07.417Z,101072.23
2018-07-30T07:45:11.024Z,101072.38
2018-07-30T07:48:14.747Z,101071.73
2018-07-30T07:51:18.408Z,101075.43
2018-07-30T07:54:22.004Z,101073.02
2018-07-30T07:57:26.123Z,101069.23
2018-07-30T08:00:29.704Z,101073.09
2018-07-30T08:03:33.365Z,101073.38
2018-07-30T08:06:38.167Z,101069.72
2018-07-30T08:09:41.871Z,101067.97
2018-07-30T08:12:45.470Z,101068.80
2018-07-30T08:15:49.044Z,101069.16
2018-07-30T08:18:53.018Z,101069.81
2018-07-30T08:21:56.710Z,101060.92
2018-07-30T08:25:00.358Z,101061.81
2018-07-30T08:28:06.952Z,101061.76
2018-07-30T08:31:12.426Z,101062.86
2018-07-30T08:34:17.342Z,101064.12
2018-07-30T08:37:22.218Z,101063.66
2018-07-30T08:40:30.770Z,101058.28
2018-07-30T08:43:37.560Z,101064.80
2018-07-30T08:46:41.824Z,101064.89
2018-07-30T08:49:46.655Z,101059.38
2018-07-30T08:52:51.027Z,101068.24
2018-07-30T08:55:56.848Z,101070.17
2018-07-30T08:59:00.404Z,101068.02
2018-07-30T09:02:14.291Z,101071.27
2018-07-30T09:05:17.960Z,101063.44
2018-07-30T09:08:23.601Z,101060.06
2018-07-30T09:11:28.475Z,101064.67
2018-07-30T09:14:32.724Z,101061.52
2018-07-30T09:17:36.363Z,101060.86
2018-07-30T09:20:40.268Z,101060.31
2018-07-30T09:23:43.874Z,101061.81
2018-07-30T09:26:47.540Z,101064.61
2018-07-30T09:29:51.698Z,101066.96
2018-07-30T09:32:55.940Z,101063.25
2018-07-30T09:35:59.483Z,101066.31
2018-07-30T09:39:10.097Z,101063.78
2018-07-30T09:42:13.784Z,101064.37
2018-07-30T09:45:18.928Z,101059.52
2018-07-30T09:48:22.400Z,101060.30
2018-07-30T09:51:25.940Z,101061.00
2018-07-30T09:54:29.463Z,101070.08
2018-07-30T09:57:33.072Z,101063.95
2018-07-30T10:00:43.053Z,101061.13
2018-07-30T10:03:46.568Z,101065.62
2018-07-30T10:06:50.074Z,101062.78
2018-07-30T10:09:54.848Z,101068.55
2018-07-30T10:12:58.407Z,101061.84
2018-07-30T10:16:02.567Z,101050.47
2018-07-30T10:19:06.730Z,101059.75
2018-07-30T10:22:11.343Z,101063.55
2018-07-30T10:25:14.869Z,101056.73
2018-07-30T10:28:18.369Z,101061.03
2018-07-30T10:31:23.007Z,101058.84
2018-07-30T10:34:26.695Z,101060.30
2018-07-30T10:37:30.162Z,101053.77
2018-07-30T10:40:34.733Z,101057.24
2018-07-30T10:43:39.194Z,101052.59
2018-07-30T10:46:42.855Z,101044.53
2018-07-30T10:49:47.552Z,101047.98
2018-07-30T10:52:52.392Z,101053.87
2018-07-30T10:55:55.976Z,101056.59
2018-07-30T10:58:59.556Z,101057.20
2018-07-30T11:02:03.138Z,101049.94
2018-07-30T11:05:11.826Z,101053.45
2018-07-30T11:08:15.405Z,101045.92
2018-07-30T11:11:21.196Z,101047.70
2018-07-30T11:14:24.758Z,101039.69
2018-07-30T11:17:28.329Z,101052.42
2018-07-30T11:20:32.578Z,101048.75
2018-07-30T11:23:36.903Z,101040.40
2018-07-30T11:26:40.514Z,101037.86
2018-07-30T11:29:44.441Z,101039.13
2018-07-30T11:32:47.992Z,101033.02
2018-07-30T11:35:58.179Z,101039.95
2018-07-30T11:39:01.754Z,101037.39
2018-07-30T11:42:06.130Z,101024.94
2018-07-30T11:45:10.785Z,101035.95
2018-07-30T11:48:18.012Z,101028.75
2018-07-30T11:51:22.221Z,101028.12
2018-07-30T11:54:26.947Z,101024.20
2018-07-30T11:57:30.471Z,101021.02
2018-07-30T12:00:34.101Z,101020.73
2018-07-30T12:03:37.683Z,101031.62
2018-07-30T12:06:41.293Z,101014.87
2018-07-30T12:09:44.892Z,101011.30
2018-07-30T12:12:49.476Z,101018.11
2018-07-30T12:15:53.358Z,101013.58
2018-07-30T12:18:56.928Z,101012.80
2018-07-30T12:22:04.223Z,101007.41
2018-07-30T12:25:07.745Z,101001.39
2018-07-30T12:28:11.344Z,101005.97
2018-07-30T12:31:16.786Z,101002.19
2018-07-30T12:34:31.045Z,101003.89
2018-07-30T12:37:36.710Z,101010.22
2018-07-30T12:40:40.501Z,100997.47
2018-07-30T12:43:50.621Z,101008.05
2018-07-30T12:46:54.175Z,101005.91
2018-07-30T12:49:57.761Z,100996.31
2018-07-30T12:53:01.492Z,100996.52
2018-07-30T12:56:06.507Z,101003.16
2018-07-30T12:59:10.046Z,100993.92
2018-07-30T13:02:13.771Z,100997.55
2018-07-30T13:05:18.477Z,100991.14
2018-07-30T13:08:22.171Z,101000.52
2018-07-30T13:11:25.722Z,101001.22
2018-07-30T13:14:29.364Z,100991.67
2018-07-30T13:17:33.875Z,100993.47
2018-07-30T13:20:37.568Z,100990.87
2018-07-30T13:23:41.198Z,100986.58
2018-07-30T13:26:44.859Z,100989.66
2018-07-30T13:29:49.461Z,100984.46
2018-07-30T13:32:54.032Z,100978.88
2018-07-30T13:35:57.593Z,100976.75
2018-07-30T13:39:01.058Z,100982.10
2018-07-30T13:42:04.672Z,100980.51
2018-07-30T13:45:10.180Z,100975.27
2018-07-30T13:48:14.532Z,100974.98
2018-07-30T13:51:18.080Z,100974.86
2018-07-30T13:54:21.693Z,100972.87
2018-07-30T13:57:25.229Z,100964.50
2018-07-30T14:00:29.414Z,100975.09
2018-07-30T14:03:32.991Z,100964.49
2018-07-30T14:06:36.568Z,100956.23
2018-07-30T14:09:41.157Z,100954.98
2018-07-30T14:12:44.789Z,100948.15
2018-07-30T14:15:48.385Z,100946.23
2018-07-30T14:18:52.664Z,100948.23
2018-07-30T14:21:56.236Z,100938.59
2018-07-30T14:25:01.251Z,100941.94
2018-07-30T14:28:04.797Z,100935.82
2018-07-30T14:31:08.433Z,100940.30
2018-07-30T14:34:12.046Z,100932.78
2018-07-30T14:37:16.205Z,100926.52
2018-07-30T14:40:19.653Z,100923.05
2018-07-30T14:43:23.215Z,100919.55
2018-07-30T14:46:29.284Z,100926.91
2018-07-30T14:49:33.296Z,100919.78
2018-07-30T14:52:36.979Z,100923.53
2018-07-30T14:55:43.940Z,100920.36
2018-07-30T14:58:47.535Z,100918.26
2018-07-30T15:01:51.150Z,100913.73
2018-07-30T15:04:54.700Z,100911.27
2018-07-30T15:07:59.085Z,100918.50
2018-07-30T15:11:02.753Z,100915.32
2018-07-30T15:14:07.970Z,100918.73
2018-07-30T15:17:11.775Z,100904.55
2018-07-30T15:20:15.583Z,100895.76
2018-07-30T15:23:20.425Z,100897.87
2018-07-30T15:26:24.137Z,100898.47
2018-07-30T15:29:28.933Z,100896.20
2018-07-30T15:32:32.752Z,100895.70
2018-07-30T15:35:36.337Z,100896.25
2018-07-30T15:38:42.338Z,100892.23
2018-07-30T15:41:46.072Z,100893.38
2018-07-30T15:44:49.596Z,100888.09
2018-07-30T15:47:54.386Z,100889.17
2018-07-30T15:50:57.958Z,100890.44
2018-07-30T15:54:01.696Z,100887.02
2018-07-30T15:57:05.324Z,100887.22
2018-07-30T16:00:09.695Z,100880.02
2018-07-30T16:03:14.021Z,100883.69
2018-07-30T16:06:18.498Z,100887.39
2018-07-30T16:09:23.808Z,100882.53
2018-07-30T16:12:28.347Z,100889.53
2018-07-30T16:15:32.816Z,100891.37
2018-07-30T16:18:36.345Z,100890.91
2018-07-30T16:21:39.940Z,100884.58
2018-07-30T16:24:43.982Z,100886.70
2018-07-30T16:27:48.735Z,100898.24
2018-07-30T16:30:57.945Z,100896.12
2018-07-30T16:34:01.599Z,100900.11
2018-07-30T16:37:05.649Z,100894.59
2018-07-30T16:40:09.207Z,100903.70
2018-07-30T16:43:13.481Z,100897.42
2018-07-30T16:46:17.208Z,100905.31
2018-07-30T16:49:21.640Z,100909.52
2018-07-30T16:52:25.452Z,100904.78
2018-07-30T16:55:29.211Z,100897.34
2018-07-30T16:58:34.600Z,100900.86
2018-07-30T17:01:38.546Z,100899.04
2018-07-30T17:04:43.830Z,100899.82
2018-07-30T17:07:47.842Z,100904.23
2018-07-30T17:10:53.755Z,100905.38
2018-07-30T17:13:59.011Z,100907.53
2018-07-30T17:17:03.843Z,100909.64
2018-07-30T17:20:09.838Z,100902.50
2018-07-30T17:23:13.481Z,100902.72
2018-07-30T17:26:17.395Z,100905.03
2018-07-30T17:29:21.226Z,100906.93
2018-07-30T17:32:25.083Z,100908.91
2018-07-30T17:35:28.606Z,100905.20
2018-07-30T17:38:34.633Z,100904.13
2018-07-30T17:41:39.317Z,100911.73
2018-07-30T17:44:49.622Z,100915.59
2018-07-30T17:48:01.706Z,100921.70
2018-07-30T17:51:11.622Z,100919.13
2018-07-30T17:54:24.318Z,100919.28
2018-07-30T17:57:30.050Z,100916.31
2018-07-30T18:00:35.138Z,100916.88
2018-07-30T18:03:39.792Z,100915.22
2018-07-30T18:06:50.706Z,100919.14
2018-07-30T18:13:43.262Z,100923.86
2018-07-30T18:30:50.402Z,100935.70
2018-07-30T18:34:05.100Z,100943.95
2018-07-30T18:48:23.453Z,100951.77
2018-07-30T18:51:45.013Z,100954.98
2018-07-30T18:55:12.998Z,100962.39
2018-07-30T18:58:25.376Z,100963.09
2018-07-30T19:01:36.150Z,100971.95
2018-07-30T19:08:05.950Z,100979.05
2018-07-30T19:11:23.190Z,100988.41
2018-07-30T19:14:28.173Z,100992.23
2018-07-30T19:17:34.550Z,100995.41
2018-07-30T19:20:44.413Z,100998.94
2018-07-30T19:23:50.156Z,101006.75
2018-07-30T19:26:57.526Z,101007.95
2018-07-30T19:30:11.072Z,101010.97
2018-07-30T19:33:28.648Z,101015.34
2018-07-30T19:36:42.317Z,101019.81
2018-07-30T19:39:47.946Z,101021.47
2018-07-30T19:42:57.955Z,101020.49
2018-07-30T19:46:09.355Z,101019.73
2018-07-30T19:49:21.465Z,101022.59
2018-07-30T19:52:31.294Z,101018.49
2018-07-30T19:55:41.931Z,101020.85
2018-07-30T19:58:49.973Z,101025.21
2018-07-30T20:01:58.809Z,101041.45
2018-07-30T20:05:06.563Z,101040.59
2018-07-30T20:08:10.584Z,101040.45
2018-07-30T20:14:33.786Z,101042.25
2018-07-30T20:17:44.664Z,101040.02
2018-07-30T20:20:56.437Z,101043.30
2018-07-30T20:24:06.409Z,101038.41
2018-07-30T20:27:16.569Z,101041.05
2018-07-30T20:30:23.563Z,101045.12
2018-07-30T20:33:32.997Z,101050.52
2018-07-30T20:36:36.837Z,101042.94
2018-07-30T20:39:40.362Z,101046.95
2018-07-30T20:42:52.301Z,101053.45
2018-07-30T20:46:01.903Z,101049.83
2018-07-30T20:49:16.084Z,101057.34
2018-07-30T20:52:27.187Z,101063.38
2018-07-30T20:55:38.547Z,101057.87
2018-07-30T20:58:49.640Z,101063.34
2018-07-30T21:01:58.753Z,101068.84
2018-07-30T21:05:09.856Z,101061.72
2018-07-30T21:08:20.033Z,101064.80
2018-07-30T21:11:27.783Z,101066.78
2018-07-30T21:14:42.353Z,101074.50
2018-07-30T21:17:47.113Z,101069.99
2018-07-30T21:20:53.997Z,101074.50
2018-07-30T21:24:06.349Z,101069.86
2018-07-30T21:27:21.334Z,101074.19
2018-07-30T21:30:45.867Z,101072.91
2018-07-30T21:33:59.148Z,101065.34
2018-07-30T21:37:05.239Z,101070.97
2018-07-30T21:40:14.246Z,101073.06
2018-07-30T21:43:20.164Z,101070.13
2018-07-30T21:46:47.414Z,101075.88
2018-07-30T21:49:59.811Z,101072.20
2018-07-30T21:53:10.688Z,101069.65
2018-07-30T21:56:15.174Z,101065.39
2018-07-30T21:59:19.737Z,101061.85
2018-07-30T22:02:24.466Z,101058.62
2018-07-30T22:05:31.531Z,101059.70
2018-07-30T22:08:37.097Z,101064.98
2018-07-30T22:11:44.073Z,101066.42
2018-07-30T22:14:47.893Z,101071.34
2018-07-30T22:17:52.681Z,101069.30
2018-07-30T22:21:06.515Z,101064.81
2018-07-30T22:24:11.069Z,101065.81
2018-07-30T22:27:15.810Z,101061.91
2018-07-30T22:30:21.757Z,101067.22
2018-07-30T22:33:25.514Z,101066.31
2018-07-30T22:36:29.219Z,101070.38
2018-07-30T22:39:32.967Z,101068.33
2018-07-30T22:42:36.816Z,101076.08
2018-07-30T22:45:43.648Z,101071.19
2018-07-30T22:48:47.564Z,101074.20
2018-07-30T22:51:52.319Z,101074.63
2018-07-30T22:54:57.620Z,101076.38
2018-07-30T22:58:02.454Z,101070.11
2018-07-30T23:01:07.930Z,101074.59
2018-07-30T23:04:11.669Z,101070.77
2018-07-30T23:07:15.419Z,101072.98
2018-07-30T23:10:25.414Z,101072.13
2018-07-30T23:13:29.886Z,101066.48
2018-07-30T23:16:33.745Z,101065.88
2018-07-30T23:19:37.520Z,101064.74
2018-07-30T23:22:41.185Z,101062.79
2018-07-30T23:25:44.925Z,101056.70
2018-07-30T23:28:48.695Z,101061.16
2018-07-30T23:31:53.052Z,101067.34
2018-07-30T23:34:56.688Z,101055.67
2018-07-30T23:38:00.311Z,101051.13
2018-07-30T23:41:04.892Z,101061.61
2018-07-30T23:44:08.675Z,101061.34
2018-07-30T23:47:12.369Z,101058.45
2018-07-30T23:50:17.094Z,101055.98
2018-07-30T23:53:21.680Z,101059.12
2018-07-30T23:56:25.272Z,101059.16
2018-07-30T23:59:28.905Z,101058.27
